sensor_id;sensor_type;location;lat;lon;timestamp;P1;durP1;ratioP1;P2;durP2;ratioP2
13566;SDS011;6855;48.112;11.298;2023-04-24T00:01:41;0.80;;;0.70;;
13566;SDS011;6855;48.112;11.298;2023-04-24T00:04:08;1.23;;;0.70;;
13566;SDS011;6855;48.112;11.298;2023-04-24T00:06:39;7.40;;;0.97;;
13566;SDS011;6855;48.112;11.298;2023-04-24T00:09:09;2.20;;;0.73;;
13566;SDS011;6855;48.112;11.298;2023-04-24T00:11:36;0.80;;;0.80;;
13566;SDS011;6855;48.112;11.298;2023-04-24T00:14:03;0.80;;;0.80;;
13566;SDS011;6855;48.112;11.298;2023-04-24T00:16:30;2.40;;;0.70;;
13566;SDS011;6855;48.112;11.298;2023-04-24T00:18:58;0.90;;;0.87;;
13566;SDS011;6855;48.112;11.298;2023-04-24T00:21:25;1.70;;;0.77;;
13566;SDS011;6855;48.112;11.298;2023-04-24T00:23:53;0.97;;;0.70;;
13566;SDS011;6855;48.112;11.298;2023-04-24T00:26:21;5.70;;;1.37;;
13566;SDS011;6855;48.112;11.298;2023-04-24T00:28:49;0.70;;;0.53;;
13566;SDS011;6855;48.112;11.298;2023-04-24T00:31:16;0.80;;;0.80;;
13566;SDS011;6855;48.112;11.298;2023-04-24T00:33:44;0.80;;;0.63;;
13566;SDS011;6855;48.112;11.298;2023-04-24T00:36:11;2.10;;;0.80;;
13566;SDS011;6855;48.112;11.298;2023-04-24T00:38:38;0.80;;;0.70;;
13566;SDS011;6855;48.112;11.298;2023-04-24T00:41:05;0.60;;;0.60;;
13566;SDS011;6855;48.112;11.298;2023-04-24T00:43:34;1.00;;;0.67;;
13566;SDS011;6855;48.112;11.298;2023-04-24T00:46:01;1.67;;;0.63;;
13566;SDS011;6855;48.112;11.298;2023-04-24T00:48:28;1.87;;;1.03;;
13566;SDS011;6855;48.112;11.298;2023-04-24T00:50:56;0.70;;;0.60;;
13566;SDS011;6855;48.112;11.298;2023-04-24T00:53:23;0.50;;;0.50;;
13566;SDS011;6855;48.112;11.298;2023-04-24T00:55:50;0.67;;;0.60;;
13566;SDS011;6855;48.112;11.298;2023-04-24T00:58:18;1.53;;;0.57;;
13566;SDS011;6855;48.112;11.298;2023-04-24T01:00:46;0.70;;;0.50;;
13566;SDS011;6855;48.112;11.298;2023-04-24T01:03:15;1.33;;;0.77;;
13566;SDS011;6855;48.112;11.298;2023-04-24T01:05:43;0.83;;;0.60;;
13566;SDS011;6855;48.112;11.298;2023-04-24T01:08:10;0.60;;;0.60;;
13566;SDS011;6855;48.112;11.298;2023-04-24T01:10:37;0.50;;;0.40;;
13566;SDS011;6855;48.112;11.298;2023-04-24T01:13:05;0.50;;;0.50;;
13566;SDS011;6855;48.112;11.298;2023-04-24T01:15:33;0.60;;;0.60;;
13566;SDS011;6855;48.112;11.298;2023-04-24T01:18:02;1.73;;;0.70;;
13566;SDS011;6855;48.112;11.298;2023-04-24T01:20:29;1.07;;;0.50;;
13566;SDS011;6855;48.112;11.298;2023-04-24T01:22:58;1.33;;;0.63;;
13566;SDS011;6855;48.112;11.298;2023-04-24T01:25:25;0.70;;;0.60;;
13566;SDS011;6855;48.112;11.298;2023-04-24T01:27:52;1.23;;;0.50;;
13566;SDS011;6855;48.112;11.298;2023-04-24T01:30:20;1.23;;;0.50;;
13566;SDS011;6855;48.112;11.298;2023-04-24T01:32:48;0.60;;;0.60;;
13566;SDS011;6855;48.112;11.298;2023-04-24T01:35:15;6.73;;;0.70;;
13566;SDS011;6855;48.112;11.298;2023-04-24T01:37:42;1.27;;;0.70;;
13566;SDS011;6855;48.112;11.298;2023-04-24T01:40:11;0.63;;;0.50;;
13566;SDS011;6855;48.112;11.298;2023-04-24T01:42:38;0.70;;;0.70;;
13566;SDS011;6855;48.112;11.298;2023-04-24T01:45:05;0.60;;;0.60;;
13566;SDS011;6855;48.112;11.298;2023-04-24T01:47:33;0.70;;;0.50;;
13566;SDS011;6855;48.112;11.298;2023-04-24T01:50:00;2.50;;;0.50;;
13566;SDS011;6855;48.112;11.298;2023-04-24T01:52:27;0.60;;;0.50;;
13566;SDS011;6855;48.112;11.298;2023-04-24T01:54:56;0.53;;;0.50;;
13566;SDS011;6855;48.112;11.298;2023-04-24T01:57:24;0.60;;;0.60;;
13566;SDS011;6855;48.112;11.298;2023-04-24T01:59:52;0.87;;;0.50;;
13566;SDS011;6855;48.112;11.298;2023-04-24T02:02:19;4.27;;;0.60;;
13566;SDS011;6855;48.112;11.298;2023-04-24T02:04:48;0.70;;;0.60;;
13566;SDS011;6855;48.112;11.298;2023-04-24T02:07:16;2.70;;;0.60;;
13566;SDS011;6855;48.112;11.298;2023-04-24T02:09:43;1.07;;;0.60;;
13566;SDS011;6855;48.112;11.298;2023-04-24T02:12:10;1.17;;;0.50;;
13566;SDS011;6855;48.112;11.298;2023-04-24T02:14:38;0.50;;;0.50;;
13566;SDS011;6855;48.112;11.298;2023-04-24T02:17:07;0.70;;;0.50;;
13566;SDS011;6855;48.112;11.298;2023-04-24T02:19:34;1.33;;;0.50;;
13566;SDS011;6855;48.112;11.298;2023-04-24T02:22:01;0.50;;;0.50;;
13566;SDS011;6855;48.112;11.298;2023-04-24T02:24:28;1.00;;;0.57;;
13566;SDS011;6855;48.112;11.298;2023-04-24T02:26:56;0.70;;;0.53;;
13566;SDS011;6855;48.112;11.298;2023-04-24T02:29:23;0.60;;;0.50;;
13566;SDS011;6855;48.112;11.298;2023-04-24T02:31:51;0.73;;;0.60;;
13566;SDS011;6855;48.112;11.298;2023-04-24T02:34:18;0.73;;;0.50;;
13566;SDS011;6855;48.112;11.298;2023-04-24T02:36:46;0.97;;;0.70;;
13566;SDS011;6855;48.112;11.298;2023-04-24T02:39:13;0.87;;;0.60;;
13566;SDS011;6855;48.112;11.298;2023-04-24T02:41:41;1.60;;;0.60;;
13566;SDS011;6855;48.112;11.298;2023-04-24T02:44:08;3.50;;;2.03;;
13566;SDS011;6855;48.112;11.298;2023-04-24T02:46:35;1.47;;;0.70;;
13566;SDS011;6855;48.112;11.298;2023-04-24T02:49:04;0.70;;;0.67;;
13566;SDS011;6855;48.112;11.298;2023-04-24T02:51:31;0.63;;;0.60;;
13566;SDS011;6855;48.112;11.298;2023-04-24T02:53:58;1.37;;;0.80;;
13566;SDS011;6855;48.112;11.298;2023-04-24T02:56:26;1.83;;;0.60;;
13566;SDS011;6855;48.112;11.298;2023-04-24T02:58:53;1.10;;;0.70;;
13566;SDS011;6855;48.112;11.298;2023-04-24T03:01:20;0.60;;;0.60;;
13566;SDS011;6855;48.112;11.298;2023-04-24T03:03:47;3.57;;;0.90;;
13566;SDS011;6855;48.112;11.298;2023-04-24T03:06:16;0.60;;;0.60;;
13566;SDS011;6855;48.112;11.298;2023-04-24T03:08:43;0.80;;;0.60;;
13566;SDS011;6855;48.112;11.298;2023-04-24T03:11:10;1.27;;;0.60;;
13566;SDS011;6855;48.112;11.298;2023-04-24T03:13:37;2.10;;;0.70;;
13566;SDS011;6855;48.112;11.298;2023-04-24T03:16:04;0.63;;;0.63;;
13566;SDS011;6855;48.112;11.298;2023-04-24T03:18:32;1.33;;;0.60;;
13566;SDS011;6855;48.112;11.298;2023-04-24T03:20:59;1.43;;;0.60;;
13566;SDS011;6855;48.112;11.298;2023-04-24T03:23:27;0.80;;;0.60;;
13566;SDS011;6855;48.112;11.298;2023-04-24T03:25:55;2.47;;;0.73;;
13566;SDS011;6855;48.112;11.298;2023-04-24T03:28:22;0.63;;;0.60;;
13566;SDS011;6855;48.112;11.298;2023-04-24T03:30:50;0.97;;;0.73;;
13566;SDS011;6855;48.112;11.298;2023-04-24T03:33:17;1.50;;;0.63;;
13566;SDS011;6855;48.112;11.298;2023-04-24T03:35:44;0.60;;;0.60;;
13566;SDS011;6855;48.112;11.298;2023-04-24T03:38:11;2.03;;;0.63;;
13566;SDS011;6855;48.112;11.298;2023-04-24T03:40:40;1.37;;;0.50;;
13566;SDS011;6855;48.112;11.298;2023-04-24T03:43:07;0.80;;;0.70;;
13566;SDS011;6855;48.112;11.298;2023-04-24T03:45:34;0.90;;;0.80;;
13566;SDS011;6855;48.112;11.298;2023-04-24T03:48:01;1.10;;;0.70;;
13566;SDS011;6855;48.112;11.298;2023-04-24T03:50:28;0.60;;;0.60;;
13566;SDS011;6855;48.112;11.298;2023-04-24T03:52:56;0.70;;;0.70;;
13566;SDS011;6855;48.112;11.298;2023-04-24T03:55:23;0.87;;;0.73;;
13566;SDS011;6855;48.112;11.298;2023-04-24T03:57:51;0.70;;;0.70;;
13566;SDS011;6855;48.112;11.298;2023-04-24T04:00:18;5.83;;;0.80;;
13566;SDS011;6855;48.112;11.298;2023-04-24T04:02:46;1.40;;;0.83;;
13566;SDS011;6855;48.112;11.298;2023-04-24T04:05:13;0.80;;;0.70;;
13566;SDS011;6855;48.112;11.298;2023-04-24T04:07:40;2.30;;;0.70;;
13566;SDS011;6855;48.112;11.298;2023-04-24T04:10:07;0.87;;;0.53;;
13566;SDS011;6855;48.112;11.298;2023-04-24T04:12:35;1.03;;;0.80;;
13566;SDS011;6855;48.112;11.298;2023-04-24T04:15:03;0.80;;;0.60;;
13566;SDS011;6855;48.112;11.298;2023-04-24T04:17:32;0.73;;;0.70;;
13566;SDS011;6855;48.112;11.298;2023-04-24T04:19:59;1.83;;;0.93;;
13566;SDS011;6855;48.112;11.298;2023-04-24T04:22:26;1.23;;;0.60;;
13566;SDS011;6855;48.112;11.298;2023-04-24T04:24:54;5.70;;;0.60;;
13566;SDS011;6855;48.112;11.298;2023-04-24T04:27:21;1.00;;;0.60;;
13566;SDS011;6855;48.112;11.298;2023-04-24T04:29:48;5.60;;;0.90;;
13566;SDS011;6855;48.112;11.298;2023-04-24T04:32:17;0.60;;;0.50;;
13566;SDS011;6855;48.112;11.298;2023-04-24T04:34:44;1.10;;;0.73;;
13566;SDS011;6855;48.112;11.298;2023-04-24T04:37:14;2.40;;;0.50;;
13566;SDS011;6855;48.112;11.298;2023-04-24T04:39:42;3.70;;;0.73;;
13566;SDS011;6855;48.112;11.298;2023-04-24T04:42:09;0.80;;;0.63;;
13566;SDS011;6855;48.112;11.298;2023-04-24T04:44:36;1.00;;;0.60;;
13566;SDS011;6855;48.112;11.298;2023-04-24T04:47:04;0.60;;;0.60;;
13566;SDS011;6855;48.112;11.298;2023-04-24T04:49:35;1.67;;;0.73;;
13566;SDS011;6855;48.112;11.298;2023-04-24T04:52:03;4.00;;;1.00;;
13566;SDS011;6855;48.112;11.298;2023-04-24T04:54:31;4.87;;;1.47;;
13566;SDS011;6855;48.112;11.298;2023-04-24T04:56:58;2.40;;;1.10;;
13566;SDS011;6855;48.112;11.298;2023-04-24T04:59:25;5.00;;;1.70;;
13566;SDS011;6855;48.112;11.298;2023-04-24T05:01:52;6.78;;;2.40;;
13566;SDS011;6855;48.112;11.298;2023-04-24T05:04:19;10.80;;;2.83;;
13566;SDS011;6855;48.112;11.298;2023-04-24T05:06:48;6.70;;;2.03;;
13566;SDS011;6855;48.112;11.298;2023-04-24T05:09:16;12.07;;;2.67;;
13566;SDS011;6855;48.112;11.298;2023-04-24T05:11:43;11.33;;;3.40;;
13566;SDS011;6855;48.112;11.298;2023-04-24T05:14:10;17.27;;;3.13;;
13566;SDS011;6855;48.112;11.298;2023-04-24T05:16:38;11.87;;;3.33;;
13566;SDS011;6855;48.112;11.298;2023-04-24T05:19:06;15.67;;;3.30;;
13566;SDS011;6855;48.112;11.298;2023-04-24T05:21:33;11.10;;;2.40;;
13566;SDS011;6855;48.112;11.298;2023-04-24T05:24:01;7.80;;;1.90;;
13566;SDS011;6855;48.112;11.298;2023-04-24T05:26:29;4.17;;;1.03;;
13566;SDS011;6855;48.112;11.298;2023-04-24T05:28:56;8.93;;;1.70;;
13566;SDS011;6855;48.112;11.298;2023-04-24T05:31:23;10.83;;;2.60;;
13566;SDS011;6855;48.112;11.298;2023-04-24T05:33:51;4.50;;;1.43;;
13566;SDS011;6855;48.112;11.298;2023-04-24T05:36:18;10.30;;;3.10;;
13566;SDS011;6855;48.112;11.298;2023-04-24T05:38:45;7.20;;;2.20;;
13566;SDS011;6855;48.112;11.298;2023-04-24T05:41:14;13.23;;;3.20;;
13566;SDS011;6855;48.112;11.298;2023-04-24T05:43:41;10.03;;;2.57;;
13566;SDS011;6855;48.112;11.298;2023-04-24T05:46:08;6.60;;;1.87;;
13566;SDS011;6855;48.112;11.298;2023-04-24T05:48:35;3.77;;;1.63;;
13566;SDS011;6855;48.112;11.298;2023-04-24T05:51:02;4.50;;;1.50;;
13566;SDS011;6855;48.112;11.298;2023-04-24T05:53:29;11.57;;;1.00;;
13566;SDS011;6855;48.112;11.298;2023-04-24T05:55:57;1.17;;;0.80;;
13566;SDS011;6855;48.112;11.298;2023-04-24T05:58:25;1.83;;;0.80;;
13566;SDS011;6855;48.112;11.298;2023-04-24T06:00:52;1.30;;;0.70;;
13566;SDS011;6855;48.112;11.298;2023-04-24T06:03:20;2.40;;;1.00;;
13566;SDS011;6855;48.112;11.298;2023-04-24T06:05:47;1.90;;;1.20;;
13566;SDS011;6855;48.112;11.298;2023-04-24T06:08:16;1.57;;;0.90;;
13566;SDS011;6855;48.112;11.298;2023-04-24T06:10:43;3.53;;;1.40;;
13566;SDS011;6855;48.112;11.298;2023-04-24T06:13:11;6.53;;;0.80;;
13566;SDS011;6855;48.112;11.298;2023-04-24T06:15:39;6.93;;;0.90;;
13566;SDS011;6855;48.112;11.298;2023-04-24T06:18:06;1.20;;;0.60;;
13566;SDS011;6855;48.112;11.298;2023-04-24T06:20:35;1.57;;;0.60;;
13566;SDS011;6855;48.112;11.298;2023-04-24T06:23:02;1.33;;;0.63;;
13566;SDS011;6855;48.112;11.298;2023-04-24T06:25:29;3.40;;;0.80;;
13566;SDS011;6855;48.112;11.298;2023-04-24T06:27:56;3.07;;;0.57;;
13566;SDS011;6855;48.112;11.298;2023-04-24T06:30:23;2.10;;;0.60;;
13566;SDS011;6855;48.112;11.298;2023-04-24T06:32:53;0.60;;;0.60;;
13566;SDS011;6855;48.112;11.298;2023-04-24T06:35:20;1.33;;;0.50;;
13566;SDS011;6855;48.112;11.298;2023-04-24T06:37:47;1.07;;;0.50;;
13566;SDS011;6855;48.112;11.298;2023-04-24T06:40:15;0.73;;;0.60;;
13566;SDS011;6855;48.112;11.298;2023-04-24T06:42:43;0.90;;;0.60;;
13566;SDS011;6855;48.112;11.298;2023-04-24T06:45:10;0.87;;;0.60;;
13566;SDS011;6855;48.112;11.298;2023-04-24T06:47:37;1.43;;;0.90;;
13566;SDS011;6855;48.112;11.298;2023-04-24T06:50:07;1.10;;;0.90;;
13566;SDS011;6855;48.112;11.298;2023-04-24T06:52:34;1.60;;;0.95;;
13566;SDS011;6855;48.112;11.298;2023-04-24T06:55:01;1.50;;;1.00;;
13566;SDS011;6855;48.112;11.298;2023-04-24T06:57:29;1.23;;;0.70;;
13566;SDS011;6855;48.112;11.298;2023-04-24T06:59:56;4.40;;;0.70;;
13566;SDS011;6855;48.112;11.298;2023-04-24T07:02:24;0.70;;;0.60;;
13566;SDS011;6855;48.112;11.298;2023-04-24T07:04:51;0.70;;;0.50;;
13566;SDS011;6855;48.112;11.298;2023-04-24T07:07:20;1.13;;;0.70;;
13566;SDS011;6855;48.112;11.298;2023-04-24T07:09:48;1.23;;;0.60;;
13566;SDS011;6855;48.112;11.298;2023-04-24T07:12:16;0.63;;;0.60;;
13566;SDS011;6855;48.112;11.298;2023-04-24T07:14:45;1.03;;;0.50;;
13566;SDS011;6855;48.112;11.298;2023-04-24T07:17:12;0.70;;;0.50;;
13566;SDS011;6855;48.112;11.298;2023-04-24T07:19:40;0.50;;;0.40;;
13566;SDS011;6855;48.112;11.298;2023-04-24T07:22:07;0.50;;;0.50;;
13566;SDS011;6855;48.112;11.298;2023-04-24T07:24:43;0.60;;;0.60;;
13566;SDS011;6855;48.112;11.298;2023-04-24T07:27:10;3.97;;;0.80;;
13566;SDS011;6855;48.112;11.298;2023-04-24T07:29:39;1.83;;;0.57;;
13566;SDS011;6855;48.112;11.298;2023-04-24T07:32:06;2.50;;;0.50;;
13566;SDS011;6855;48.112;11.298;2023-04-24T07:34:34;0.50;;;0.40;;
13566;SDS011;6855;48.112;11.298;2023-04-24T07:37:01;1.00;;;0.60;;
13566;SDS011;6855;48.112;11.298;2023-04-24T07:39:29;0.60;;;0.50;;
13566;SDS011;6855;48.112;11.298;2023-04-24T07:41:57;2.13;;;0.60;;
13566;SDS011;6855;48.112;11.298;2023-04-24T07:44:26;0.97;;;0.50;;
13566;SDS011;6855;48.112;11.298;2023-04-24T07:46:53;0.77;;;0.57;;
13566;SDS011;6855;48.112;11.298;2023-04-24T07:49:20;0.50;;;0.40;;
13566;SDS011;6855;48.112;11.298;2023-04-24T07:51:48;1.33;;;0.50;;
13566;SDS011;6855;48.112;11.298;2023-04-24T07:54:15;5.77;;;0.80;;
13566;SDS011;6855;48.112;11.298;2023-04-24T07:56:43;0.93;;;0.60;;
13566;SDS011;6855;48.112;11.298;2023-04-24T07:59:11;0.53;;;0.50;;
13566;SDS011;6855;48.112;11.298;2023-04-24T08:01:39;0.80;;;0.57;;
13566;SDS011;6855;48.112;11.298;2023-04-24T08:04:06;1.17;;;0.70;;
13566;SDS011;6855;48.112;11.298;2023-04-24T08:06:33;2.10;;;0.97;;
13566;SDS011;6855;48.112;11.298;2023-04-24T08:09:00;0.80;;;0.70;;
13566;SDS011;6855;48.112;11.298;2023-04-24T08:11:27;4.10;;;0.63;;
13566;SDS011;6855;48.112;11.298;2023-04-24T08:13:54;1.37;;;0.50;;
13566;SDS011;6855;48.112;11.298;2023-04-24T08:16:23;0.73;;;0.73;;
13566;SDS011;6855;48.112;11.298;2023-04-24T08:18:50;0.60;;;0.60;;
13566;SDS011;6855;48.112;11.298;2023-04-24T08:21:18;0.83;;;0.83;;
13566;SDS011;6855;48.112;11.298;2023-04-24T08:23:45;0.87;;;0.60;;
13566;SDS011;6855;48.112;11.298;2023-04-24T08:26:13;1.87;;;0.83;;
13566;SDS011;6855;48.112;11.298;2023-04-24T08:28:40;2.00;;;0.83;;
13566;SDS011;6855;48.112;11.298;2023-04-24T08:31:07;1.37;;;0.90;;
13566;SDS011;6855;48.112;11.298;2023-04-24T08:33:36;2.70;;;0.70;;
13566;SDS011;6855;48.112;11.298;2023-04-24T08:36:03;1.73;;;0.93;;
13566;SDS011;6855;48.112;11.298;2023-04-24T08:38:30;0.90;;;0.80;;
13566;SDS011;6855;48.112;11.298;2023-04-24T08:40:58;6.23;;;1.10;;
13566;SDS011;6855;48.112;11.298;2023-04-24T08:43:26;0.70;;;0.70;;
13566;SDS011;6855;48.112;11.298;2023-04-24T08:45:54;1.80;;;0.80;;
13566;SDS011;6855;48.112;11.298;2023-04-24T08:48:22;1.77;;;0.83;;
13566;SDS011;6855;48.112;11.298;2023-04-24T08:50:51;0.80;;;0.80;;
13566;SDS011;6855;48.112;11.298;2023-04-24T08:53:18;8.20;;;0.87;;
13566;SDS011;6855;48.112;11.298;2023-04-24T08:55:46;2.13;;;1.03;;
13566;SDS011;6855;48.112;11.298;2023-04-24T08:58:14;1.23;;;0.80;;
13566;SDS011;6855;48.112;11.298;2023-04-24T09:00:43;0.90;;;0.80;;
13566;SDS011;6855;48.112;11.298;2023-04-24T09:03:13;0.80;;;0.80;;
13566;SDS011;6855;48.112;11.298;2023-04-24T09:05:41;2.40;;;1.13;;
13566;SDS011;6855;48.112;11.298;2023-04-24T09:08:12;3.23;;;0.90;;
13566;SDS011;6855;48.112;11.298;2023-04-24T09:10:40;1.20;;;0.70;;
13566;SDS011;6855;48.112;11.298;2023-04-24T09:13:07;1.00;;;0.90;;
13566;SDS011;6855;48.112;11.298;2023-04-24T09:15:35;0.83;;;0.70;;
13566;SDS011;6855;48.112;11.298;2023-04-24T09:18:04;1.60;;;1.00;;
13566;SDS011;6855;48.112;11.298;2023-04-24T09:20:31;1.40;;;0.83;;
13566;SDS011;6855;48.112;11.298;2023-04-24T09:23:00;1.50;;;0.80;;
13566;SDS011;6855;48.112;11.298;2023-04-24T09:25:32;1.27;;;0.70;;
13566;SDS011;6855;48.112;11.298;2023-04-24T09:28:00;2.20;;;0.90;;
13566;SDS011;6855;48.112;11.298;2023-04-24T09:30:27;1.00;;;0.90;;
13566;SDS011;6855;48.112;11.298;2023-04-24T09:33:09;1.40;;;1.10;;
13566;SDS011;6855;48.112;11.298;2023-04-24T09:35:37;1.17;;;0.70;;
13566;SDS011;6855;48.112;11.298;2023-04-24T09:38:07;3.87;;;1.00;;
13566;SDS011;6855;48.112;11.298;2023-04-24T09:40:35;0.90;;;0.70;;
13566;SDS011;6855;48.112;11.298;2023-04-24T09:43:02;1.60;;;0.73;;
13566;SDS011;6855;48.112;11.298;2023-04-24T09:45:34;1.00;;;0.70;;
13566;SDS011;6855;48.112;11.298;2023-04-24T09:48:02;0.70;;;0.67;;
13566;SDS011;6855;48.112;11.298;2023-04-24T09:50:31;3.57;;;0.90;;
13566;SDS011;6855;48.112;11.298;2023-04-24T09:53:01;1.50;;;0.90;;
13566;SDS011;6855;48.112;11.298;2023-04-24T09:55:28;1.00;;;0.93;;
13566;SDS011;6855;48.112;11.298;2023-04-24T09:57:57;2.63;;;1.37;;
13566;SDS011;6855;48.112;11.298;2023-04-24T10:00:26;2.40;;;1.03;;
13566;SDS011;6855;48.112;11.298;2023-04-24T10:02:57;1.50;;;0.90;;
13566;SDS011;6855;48.112;11.298;2023-04-24T10:05:26;0.90;;;0.90;;
13566;SDS011;6855;48.112;11.298;2023-04-24T10:07:56;1.00;;;0.90;;
13566;SDS011;6855;48.112;11.298;2023-04-24T10:10:23;1.00;;;0.80;;
13566;SDS011;6855;48.112;11.298;2023-04-24T10:12:51;1.13;;;0.97;;
13566;SDS011;6855;48.112;11.298;2023-04-24T10:15:19;1.67;;;1.00;;
13566;SDS011;6855;48.112;11.298;2023-04-24T10:17:47;9.70;;;1.20;;
13566;SDS011;6855;48.112;11.298;2023-04-24T10:20:17;1.27;;;1.07;;
13566;SDS011;6855;48.112;11.298;2023-04-24T10:22:45;1.10;;;1.00;;
13566;SDS011;6855;48.112;11.298;2023-04-24T10:25:14;0.90;;;0.80;;
13566;SDS011;6855;48.112;11.298;2023-04-24T10:27:43;2.03;;;1.13;;
13566;SDS011;6855;48.112;11.298;2023-04-24T10:30:11;1.30;;;1.20;;
13566;SDS011;6855;48.112;11.298;2023-04-24T10:32:40;2.10;;;0.90;;
13566;SDS011;6855;48.112;11.298;2023-04-24T10:35:07;2.50;;;1.00;;
13566;SDS011;6855;48.112;11.298;2023-04-24T10:37:36;2.30;;;0.60;;
13566;SDS011;6855;48.112;11.298;2023-04-24T10:40:04;1.13;;;0.60;;
13566;SDS011;6855;48.112;11.298;2023-04-24T10:42:32;1.20;;;0.67;;
13566;SDS011;6855;48.112;11.298;2023-04-24T10:44:59;0.60;;;0.60;;
13566;SDS011;6855;48.112;11.298;2023-04-24T10:47:27;0.90;;;0.70;;
13566;SDS011;6855;48.112;11.298;2023-04-24T10:49:55;1.57;;;1.10;;
13566;SDS011;6855;48.112;11.298;2023-04-24T10:52:37;1.00;;;0.80;;
13566;SDS011;6855;48.112;11.298;2023-04-24T10:55:10;1.00;;;0.63;;
13566;SDS011;6855;48.112;11.298;2023-04-24T10:57:39;1.03;;;0.60;;
13566;SDS011;6855;48.112;11.298;2023-04-24T11:00:10;2.00;;;1.13;;
13566;SDS011;6855;48.112;11.298;2023-04-24T11:02:40;0.60;;;0.50;;
13566;SDS011;6855;48.112;11.298;2023-04-24T11:05:15;1.27;;;0.70;;
13566;SDS011;6855;48.112;11.298;2023-04-24T11:10:29;0.77;;;0.77;;
13566;SDS011;6855;48.112;11.298;2023-04-24T11:12:56;1.20;;;1.10;;
13566;SDS011;6855;48.112;11.298;2023-04-24T11:15:23;1.33;;;0.80;;
13566;SDS011;6855;48.112;11.298;2023-04-24T11:17:50;1.00;;;0.90;;
13566;SDS011;6855;48.112;11.298;2023-04-24T11:20:23;2.00;;;0.90;;
13566;SDS011;6855;48.112;11.298;2023-04-24T11:22:52;1.03;;;0.80;;
13566;SDS011;6855;48.112;11.298;2023-04-24T11:25:20;3.93;;;1.20;;
13566;SDS011;6855;48.112;11.298;2023-04-24T11:27:48;1.53;;;0.90;;
13566;SDS011;6855;48.112;11.298;2023-04-24T11:30:17;1.90;;;1.30;;
13566;SDS011;6855;48.112;11.298;2023-04-24T11:32:47;5.67;;;1.30;;
13566;SDS011;6855;48.112;11.298;2023-04-24T11:35:15;3.07;;;1.10;;
13566;SDS011;6855;48.112;11.298;2023-04-24T11:37:44;0.80;;;0.80;;
13566;SDS011;6855;48.112;11.298;2023-04-24T11:40:14;1.53;;;1.03;;
13566;SDS011;6855;48.112;11.298;2023-04-24T11:42:41;0.90;;;0.90;;
13566;SDS011;6855;48.112;11.298;2023-04-24T11:45:09;1.27;;;0.90;;
13566;SDS011;6855;48.112;11.298;2023-04-24T11:47:37;2.40;;;0.73;;
13566;SDS011;6855;48.112;11.298;2023-04-24T11:50:05;0.80;;;0.80;;
13566;SDS011;6855;48.112;11.298;2023-04-24T11:52:33;1.70;;;0.90;;
13566;SDS011;6855;48.112;11.298;2023-04-24T11:55:06;4.47;;;1.20;;
13566;SDS011;6855;48.112;11.298;2023-04-24T11:57:33;0.97;;;0.70;;
13566;SDS011;6855;48.112;11.298;2023-04-24T12:00:01;0.97;;;0.90;;
13566;SDS011;6855;48.112;11.298;2023-04-24T12:02:30;2.20;;;0.80;;
13566;SDS011;6855;48.112;11.298;2023-04-24T12:04:57;1.50;;;0.87;;
13566;SDS011;6855;48.112;11.298;2023-04-24T12:07:24;1.27;;;0.80;;
13566;SDS011;6855;48.112;11.298;2023-04-24T12:09:55;2.53;;;1.00;;
13566;SDS011;6855;48.112;11.298;2023-04-24T12:12:24;2.40;;;1.10;;
13566;SDS011;6855;48.112;11.298;2023-04-24T12:14:52;0.93;;;0.83;;
13566;SDS011;6855;48.112;11.298;2023-04-24T12:17:23;3.80;;;1.17;;
13566;SDS011;6855;48.112;11.298;2023-04-24T12:19:51;2.20;;;0.90;;
13566;SDS011;6855;48.112;11.298;2023-04-24T12:22:18;0.90;;;0.90;;
13566;SDS011;6855;48.112;11.298;2023-04-24T12:24:55;1.33;;;0.90;;
13566;SDS011;6855;48.112;11.298;2023-04-24T12:27:24;2.70;;;1.10;;
13566;SDS011;6855;48.112;11.298;2023-04-24T12:29:51;2.47;;;0.80;;
13566;SDS011;6855;48.112;11.298;2023-04-24T12:32:19;1.13;;;0.80;;
13566;SDS011;6855;48.112;11.298;2023-04-24T12:34:46;2.40;;;1.03;;
13566;SDS011;6855;48.112;11.298;2023-04-24T12:37:14;4.43;;;1.00;;
13566;SDS011;6855;48.112;11.298;2023-04-24T12:39:44;1.27;;;0.97;;
13566;SDS011;6855;48.112;11.298;2023-04-24T12:42:11;1.90;;;0.90;;
13566;SDS011;6855;48.112;11.298;2023-04-24T12:44:40;1.00;;;0.90;;
13566;SDS011;6855;48.112;11.298;2023-04-24T12:47:07;1.10;;;1.00;;
13566;SDS011;6855;48.112;11.298;2023-04-24T12:49:35;1.63;;;0.80;;
13566;SDS011;6855;48.112;11.298;2023-04-24T12:52:02;1.30;;;0.90;;
13566;SDS011;6855;48.112;11.298;2023-04-24T12:54:32;0.93;;;0.80;;
13566;SDS011;6855;48.112;11.298;2023-04-24T12:56:59;1.23;;;0.90;;
13566;SDS011;6855;48.112;11.298;2023-04-24T12:59:26;1.10;;;1.00;;
13566;SDS011;6855;48.112;11.298;2023-04-24T13:01:55;2.63;;;1.20;;
13566;SDS011;6855;48.112;11.298;2023-04-24T13:04:22;1.33;;;1.17;;
13566;SDS011;6855;48.112;11.298;2023-04-24T13:06:49;3.97;;;1.40;;
13566;SDS011;6855;48.112;11.298;2023-04-24T13:09:16;2.30;;;1.00;;
13566;SDS011;6855;48.112;11.298;2023-04-24T13:11:44;1.37;;;1.10;;
13566;SDS011;6855;48.112;11.298;2023-04-24T13:14:11;1.20;;;0.97;;
13566;SDS011;6855;48.112;11.298;2023-04-24T13:16:38;1.47;;;1.20;;
13566;SDS011;6855;48.112;11.298;2023-04-24T13:19:06;1.57;;;1.30;;
13566;SDS011;6855;48.112;11.298;2023-04-24T13:21:34;1.57;;;1.00;;
13566;SDS011;6855;48.112;11.298;2023-04-24T13:24:01;3.93;;;1.23;;
13566;SDS011;6855;48.112;11.298;2023-04-24T13:26:29;2.03;;;1.10;;
13566;SDS011;6855;48.112;11.298;2023-04-24T13:28:57;2.30;;;1.10;;
13566;SDS011;6855;48.112;11.298;2023-04-24T13:31:24;6.37;;;1.33;;
13566;SDS011;6855;48.112;11.298;2023-04-24T13:33:51;2.83;;;1.00;;
13566;SDS011;6855;48.112;11.298;2023-04-24T13:36:19;1.53;;;1.30;;
13566;SDS011;6855;48.112;11.298;2023-04-24T13:38:47;1.03;;;0.90;;
13566;SDS011;6855;48.112;11.298;2023-04-24T13:41:14;4.13;;;1.40;;
13566;SDS011;6855;48.112;11.298;2023-04-24T13:43:41;3.87;;;1.20;;
13566;SDS011;6855;48.112;11.298;2023-04-24T13:46:08;5.50;;;1.17;;
13566;SDS011;6855;48.112;11.298;2023-04-24T13:48:35;2.73;;;1.20;;
13566;SDS011;6855;48.112;11.298;2023-04-24T13:51:03;1.57;;;0.80;;
13566;SDS011;6855;48.112;11.298;2023-04-24T13:53:31;1.40;;;1.03;;
13566;SDS011;6855;48.112;11.298;2023-04-24T13:56:01;4.00;;;1.20;;
13566;SDS011;6855;48.112;11.298;2023-04-24T13:58:29;5.33;;;1.57;;
13566;SDS011;6855;48.112;11.298;2023-04-24T14:00:57;3.87;;;1.30;;
13566;SDS011;6855;48.112;11.298;2023-04-24T14:03:24;1.30;;;1.10;;
13566;SDS011;6855;48.112;11.298;2023-04-24T14:05:51;2.30;;;1.53;;
13566;SDS011;6855;48.112;11.298;2023-04-24T14:08:18;2.67;;;1.10;;
13566;SDS011;6855;48.112;11.298;2023-04-24T14:10:47;3.30;;;1.10;;
13566;SDS011;6855;48.112;11.298;2023-04-24T14:13:15;1.33;;;1.20;;
13566;SDS011;6855;48.112;11.298;2023-04-24T14:15:42;2.57;;;1.47;;
13566;SDS011;6855;48.112;11.298;2023-04-24T14:18:10;4.80;;;1.10;;
13566;SDS011;6855;48.112;11.298;2023-04-24T14:20:37;1.50;;;1.17;;
13566;SDS011;6855;48.112;11.298;2023-04-24T14:23:04;3.47;;;1.27;;
13566;SDS011;6855;48.112;11.298;2023-04-24T14:25:36;2.40;;;1.17;;
13566;SDS011;6855;48.112;11.298;2023-04-24T14:28:05;1.83;;;1.20;;
13566;SDS011;6855;48.112;11.298;2023-04-24T14:30:34;2.53;;;1.10;;
13566;SDS011;6855;48.112;11.298;2023-04-24T14:33:05;2.30;;;1.20;;
13566;SDS011;6855;48.112;11.298;2023-04-24T14:35:35;1.73;;;1.20;;
13566;SDS011;6855;48.112;11.298;2023-04-24T14:38:05;4.13;;;1.17;;
13566;SDS011;6855;48.112;11.298;2023-04-24T14:40:33;7.40;;;2.10;;
13566;SDS011;6855;48.112;11.298;2023-04-24T14:43:01;3.10;;;1.30;;
13566;SDS011;6855;48.112;11.298;2023-04-24T14:45:29;2.60;;;1.33;;
13566;SDS011;6855;48.112;11.298;2023-04-24T14:47:59;2.13;;;1.40;;
13566;SDS011;6855;48.112;11.298;2023-04-24T14:50:42;2.60;;;1.00;;
13566;SDS011;6855;48.112;11.298;2023-04-24T14:53:10;3.07;;;1.30;;
13566;SDS011;6855;48.112;11.298;2023-04-24T14:55:39;3.00;;;1.17;;